Terminal Aerodrome Forecast
Issued by NWS Boston, MA

Home | Current Version | Previous Version | Text Only | Print | Product List | Glossary On
Versions: 1 2 3 4 5 6 7 8 9 10 11 12 13 14 15 16 17 18 19 20 21 22 23 24 25 26 27 28 29 30 31 32 33 34 35 36 37 38 39 40 41 42 43 44 45 46 47 48 49 50
000
FTUS41 KBOX 231740 AAD
TAFPVD
TAF AMD
KPVD 231740Z 2318/2418 16008KT P6SM SCT012 BKN200
     FM240000 16008KT P6SM SCT008 BKN030
     FM240400 17010G17KT P6SM BKN030
     FM240900 16010G19KT P6SM OVC020
     FM241000 16011G18KT P6SM VCSH OVC020
     FM241500 17016G25KT 5SM BR VCSH OVC025
     FM241600 17016G27KT 5SM -SHRA BR OVC025=

USA.gov is the U.S. government's official web portal to all federal, state and local government web resources and services.